Weather at H.G.F. Heliport

Public forecast

Using degrees Fahrenheit for public forecast. Weather courtesy of forecast.io.

Closest aviation weather report (METAR) to H.G.F. Heliport

Closest report is Allentown Queen City Municipal Airport, 3.3 nm (6.0 km) E. Retrieved 2021/07/30 20:15 UTC (0 seconds ago):

KXLL 302015Z AUTO 35010G19KT 10SM SCT060 SCT070 27/13 A2987 RMK AO2

Closest aviation forecast (TAF) to H.G.F. Heliport

Closest forecast is Lehigh Valley International Airport, 7.4 nm (13.7 km) NE. Retrieved 2021/07/30 18:34 UTC (2 hours ago):

TAF KABE 301731Z 3018/3118 32012G20KT P6SM SCT050 FM310000 34010KT P6SM FEW070 FM310400 VRB03KT P6SM SKC FM311500 30005KT P6SM FEW250